Time;durP1;ratioP1;P1;durP2;ratioP2;P2;SDS_P1;SDS_P2;PMS_P1;PMS_P2;Temp;Humidity;BMP_temperature;BMP_pressure;BME280_temperature;BME280_humidity;BME280_pressure;Samples;Min_cycle;Max_cycle;Signal;HPM_P1;HPM_P2
2022/02/11 00:07:14;;;;;;;;;17.00;16.25;;;;;6.14;72.36;102102.63;5014529;28;46367;-80
2022/02/11 00:09:39;;;;;;;;;14.50;13.00;;;;;6.12;72.44;102114.69;5013838;28;45302;-83
2022/02/11 00:12:05;;;;;;;;;17.75;14.50;;;;;6.43;72.67;102170.06;5014499;28;45428;-82
2022/02/11 00:14:36;;;;;;;;;15.50;14.50;;;;;6.02;72.21;102101.75;4996466;28;45454;-82
2022/02/11 00:17:01;;;;;;;;;17.25;14.50;;;;;6.29;72.69;102148.94;5014139;28;45575;-80
2022/02/11 00:19:27;;;;;;;;;16.50;16.25;;;;;6.20;72.91;102139.63;5014023;28;45367;-79
2022/02/11 00:21:52;;;;;;;;;16.25;16.00;;;;;6.15;72.95;102125.31;5014093;28;46235;-80
2022/02/11 00:24:17;;;;;;;;;14.00;13.50;;;;;6.05;72.67;102115.00;5014007;28;45471;-83
2022/02/11 00:26:51;;;;;;;;;17.67;17.00;;;;;6.19;72.73;102148.25;4996120;28;52307;-79
2022/02/11 00:29:51;;;;;;;;;17.50;16.50;;;;;6.23;72.46;102172.00;4996279;28;46239;-81
2022/02/11 00:32:24;;;;;;;;;16.00;14.00;;;;;6.20;72.65;102170.94;5013239;28;45428;-81
2022/02/11 00:34:57;;;;;;;;;18.00;17.00;;;;;6.14;72.48;102159.16;5014107;28;45414;-83
2022/02/11 00:37:24;;;;;;;;;13.75;11.50;;;;;6.22;72.68;102180.63;5013731;28;45693;-80
2022/02/11 00:45:46;;;;;;;;;16.75;15.00;;;;;6.17;72.91;102164.63;5008549;28;45382;-81
2022/02/11 01:04:35;;;;;;;;;13.75;13.75;;;;;5.70;72.70;102139.31;5013710;28;45447;-85
2022/02/11 01:07:01;;;;;;;;;11.00;9.00;;;;;5.87;72.48;102171.00;5013660;28;45317;-80
2022/02/11 01:09:27;;;;;;;;;17.00;13.50;;;;;5.36;72.59;102083.66;5012922;28;45792;-82
2022/02/11 01:11:55;;;;;;;;;13.25;12.00;;;;;5.55;72.72;102127.69;4995370;28;45562;-81
2022/02/11 01:14:32;;;;;;;;;15.00;13.00;;;;;5.93;72.75;102190.69;5013608;28;45349;-84
2022/02/11 01:17:07;;;;;;;;;11.50;11.25;;;;;5.62;72.45;102147.34;5013413;28;45280;-80
2022/02/11 01:19:42;;;;;;;;;11.75;11.25;;;;;5.72;72.44;102164.63;5013378;28;46136;-80
2022/02/11 01:38:16;;;;;;;;;11.00;11.00;;;;;5.56;72.25;102188.59;5012727;28;45359;-85
2022/02/11 02:57:07;;;;;;;;;11.75;10.75;;;;;5.00;72.88;102266.72;5015940;28;45545;-85
2022/02/11 03:35:03;;;;;;;;;9.00;9.00;;;;;4.28;72.42;102245.13;5015219;28;45556;-79
2022/02/11 04:56:05;;;;;;;;;8.00;8.00;;;;;4.32;73.45;102407.69;5013824;28;45312;-84
2022/02/11 05:01:17;;;;;;;;;9.25;9.25;;;;;3.91;73.32;102347.78;5013839;28;45266;-84
2022/02/11 05:03:42;;;;;;;;;17.50;11.25;;;;;3.95;73.43;102365.47;5013429;28;45713;-84
2022/02/11 05:06:09;;;;;;;;;13.00;11.00;;;;;4.07;73.39;102402.94;4995647;28;45420;-82
2022/02/11 05:08:34;;;;;;;;;10.50;10.50;;;;;4.17;73.50;102401.16;5013216;28;45388;-80
2022/02/11 05:11:00;;;;;;;;;10.33;10.00;;;;;4.02;73.21;102386.03;5013702;28;45490;-84
2022/02/11 05:13:25;;;;;;;;;14.00;12.67;;;;;3.74;72.96;102346.28;5013442;28;45598;-84
2022/02/11 05:15:51;;;;;;;;;13.25;10.75;;;;;4.23;73.20;102432.91;5013267;28;45330;-83
2022/02/11 05:18:17;;;;;;;;;9.75;9.75;;;;;3.73;73.30;102354.88;5013079;28;45539;-80
2022/02/11 05:20:42;;;;;;;;;10.00;10.00;;;;;3.89;73.26;102377.94;5013259;28;45484;-81
2022/02/11 05:23:12;;;;;;;;;10.25;9.25;;;;;3.63;72.81;102334.03;5012919;28;45703;-83
2022/02/11 05:25:39;;;;;;;;;8.75;7.50;;;;;4.10;72.99;102424.03;5013279;28;45251;-81
2022/02/11 05:28:06;;;;;;;;;13.50;12.75;;;;;3.85;73.22;102381.06;5013618;28;45067;-84
2022/02/11 05:30:32;;;;;;;;;10.50;10.25;;;;;3.90;73.08;102407.47;5013620;28;45850;-83
2022/02/11 05:32:59;;;;;;;;;11.25;10.50;;;;;3.76;73.19;102394.16;5013540;28;46521;-81
2022/02/11 05:35:25;;;;;;;;;9.50;9.00;;;;;4.11;73.23;102467.50;5013282;28;45700;-84
2022/02/11 05:37:50;;;;;;;;;14.50;13.50;;;;;3.70;73.10;102395.31;5012785;28;45316;-84
2022/02/11 05:40:16;;;;;;;;;13.67;13.33;;;;;4.07;73.02;102469.69;5013208;28;45319;-82
2022/02/11 05:42:42;;;;;;;;;14.50;13.25;;;;;3.91;73.29;102446.63;5012915;28;46383;-83
2022/02/11 05:45:09;;;;;;;;;18.75;18.00;;;;;3.72;73.68;102402.47;5013098;28;45323;-84
2022/02/11 05:47:34;;;;;;;;;18.50;17.00;;;;;4.08;73.49;102472.41;5013241;28;45543;-81
2022/02/11 05:50:03;;;;;;;;;14.00;13.00;;;;;3.52;73.22;102374.69;5013431;28;45773;-81
2022/02/11 05:52:29;;;;;;;;;15.25;13.00;;;;;4.08;73.48;102482.81;5012684;28;45639;-82
2022/02/11 05:54:54;;;;;;;;;18.50;16.00;;;;;4.08;73.59;102492.31;5013072;28;45547;-80
2022/02/11 05:57:20;;;;;;;;;16.50;16.50;;;;;3.69;73.55;102416.88;5013010;28;45483;-85
2022/02/11 05:59:51;;;;;;;;;13.33;12.00;;;;;3.77;73.62;102432.38;5013041;28;45341;-84
2022/02/11 06:02:21;;;;;;;;;16.25;16.00;;;;;3.99;73.35;102469.03;5013838;28;45654;-83
2022/02/11 06:04:46;;;;;;;;;15.75;15.75;;;;;3.79;73.53;102436.06;5014152;28;45305;-80
2022/02/11 06:07:12;;;;;;;;;13.25;13.00;;;;;3.67;73.38;102421.94;5012993;28;45479;-83
2022/02/11 06:09:37;;;;;;;;;15.67;14.67;;;;;3.88;72.77;102474.94;4994751;28;45321;-79
2022/02/11 06:12:03;;;;;;;;;13.75;12.50;;;;;4.03;73.42;102507.50;5012502;28;46080;-80
2022/02/11 06:14:28;;;;;;;;;16.50;15.00;;;;;3.81;73.56;102465.69;5012714;28;45404;-86
2022/02/11 06:16:53;;;;;;;;;14.33;13.33;;;;;3.49;73.68;102402.09;5012683;28;45428;-83
2022/02/11 06:19:19;;;;;;;;;11.50;11.50;;;;;4.03;73.49;102493.59;5012561;28;45412;-81
2022/02/11 06:21:44;;;;;;;;;14.33;14.00;;;;;3.87;73.46;102470.53;5012354;28;45445;-84
2022/02/11 06:24:10;;;;;;;;;15.75;13.75;;;;;3.78;73.53;102460.22;5012233;28;45463;-81
2022/02/11 06:26:35;;;;;;;;;15.25;13.75;;;;;3.99;73.93;102504.50;5012765;28;45349;-84
2022/02/11 06:29:01;;;;;;;;;16.00;15.25;;;;;3.73;73.61;102471.88;5013905;28;45364;-84
2022/02/11 06:31:26;;;;;;;;;13.75;13.25;;;;;3.65;73.76;102459.00;5016013;28;45471;-83
2022/02/11 06:33:52;;;;;;;;;19.00;17.00;;;;;3.81;74.16;102490.78;5015745;28;45464;-85
2022/02/11 06:36:18;;;;;;;;;17.75;16.00;;;;;3.95;74.22;102521.56;4997964;28;45506;-80
2022/02/11 06:38:43;;;;;;;;;28.50;26.25;;;;;3.73;74.51;102483.97;5015983;28;45537;-81
2022/02/11 06:41:08;;;;;;;;;20.67;18.00;;;;;3.85;74.37;102509.41;5015624;28;46164;-80
2022/02/11 06:43:34;;;;;;;;;34.25;30.50;;;;;3.97;74.16;102538.19;4997905;28;45333;-80
2022/02/11 06:46:01;;;;;;;;;39.25;36.00;;;;;3.96;74.16;102538.97;5024722;28;45544;-81
2022/02/11 06:48:26;;;;;;;;;50.00;42.00;;;;;3.96;74.21;102548.47;5048270;28;45392;-80
2022/02/11 06:50:53;;;;;;;;;39.50;36.00;;;;;3.96;74.21;102556.28;5053188;28;45203;-85
2022/02/11 06:53:19;;;;;;;;;39.75;36.00;;;;;3.95;74.04;102555.38;5053247;28;44892;-84
2022/02/11 06:55:45;;;;;;;;;46.00;39.50;;;;;3.97;74.15;102564.22;5053172;28;45110;-84
2022/02/11 06:58:11;;;;;;;;;32.75;27.25;;;;;3.74;73.81;102525.72;5053430;28;45031;-80
2022/02/11 07:00:39;;;;;;;;;37.00;33.75;;;;;3.17;73.72;102417.41;5047812;28;45674;-80
2022/02/11 07:03:04;;;;;;;;;28.75;27.25;;;;;3.85;74.07;102535.41;5050575;28;45574;-80
2022/02/11 07:05:30;;;;;;;;;29.50;26.75;;;;;3.71;73.81;102525.47;5053406;28;44998;-84
2022/02/11 07:07:55;;;;;;;;;20.75;18.00;;;;;3.50;74.19;102495.84;5052972;28;45335;-84
2022/02/11 07:10:21;;;;;;;;;22.75;21.75;;;;;3.47;74.02;102498.13;5052972;28;45147;-81
2022/02/11 07:12:47;;;;;;;;;23.75;21.00;;;;;3.60;73.66;102532.28;5052843;28;44950;-80
2022/02/11 07:15:12;;;;;;;;;22.00;18.00;;;;;3.74;73.79;102563.81;5035022;28;44937;-84
2022/02/11 07:17:38;;;;;;;;;16.00;15.00;;;;;3.98;74.38;102607.66;5041619;28;45097;-84
2022/02/11 07:20:06;;;;;;;;;19.75;18.25;;;;;3.79;74.26;102571.28;5037663;28;46009;-81
2022/02/11 07:22:34;;;;;;;;;15.50;14.25;;;;;3.81;74.55;102574.91;5040801;28;45375;-81
2022/02/11 07:25:02;;;;;;;;;21.00;17.50;;;;;3.53;74.34;102526.38;5046785;28;45353;-81
2022/02/11 07:27:27;;;;;;;;;18.00;16.75;;;;;3.23;74.21;102472.50;5047157;28;45375;-82
2022/02/11 07:29:52;;;;;;;;;21.50;18.50;;;;;3.65;73.98;102555.19;5052604;28;49018;-79
2022/02/11 07:32:18;;;;;;;;;19.00;17.00;;;;;4.01;74.10;102613.16;5052892;28;45063;-80
2022/02/11 07:34:45;;;;;;;;;19.00;18.00;;;;;4.07;74.30;102637.09;5052676;28;44902;-84
2022/02/11 07:37:10;;;;;;;;;19.25;18.25;;;;;3.87;73.61;102605.78;5053157;28;45159;-80
2022/02/11 07:39:35;;;;;;;;;17.33;16.67;;;;;4.00;73.55;102639.03;5052231;28;45721;-80
2022/02/11 07:42:01;;;;;;;;;20.67;18.33;;;;;3.57;73.59;102563.19;5052861;28;45102;-79
2022/02/11 07:44:26;;;;;;;;;20.33;17.33;;;;;3.96;73.54;102635.22;5053107;28;45039;-79
2022/02/11 07:46:51;;;;;;;;;17.33;17.33;;;;;4.14;73.64;102664.63;5052508;28;44990;-80
2022/02/11 07:49:17;;;;;;;;;18.33;18.00;;;;;3.94;73.73;102617.63;5035190;28;47022;-80
2022/02/11 07:51:42;;;;;;;;;18.75;18.50;;;;;4.07;74.05;102631.91;5034361;28;45463;-83
2022/02/11 07:54:07;;;;;;;;;21.67;18.00;;;;;4.12;74.29;102646.25;5034429;28;45434;-80
2022/02/11 07:56:33;;;;;;;;;22.75;21.00;;;;;3.75;74.01;102573.47;5037245;28;45593;-81
2022/02/11 07:58:58;;;;;;;;;24.00;22.75;;;;;4.38;74.12;102671.09;5045866;28;45448;-79
2022/02/11 08:01:23;;;;;;;;;23.33;21.00;;;;;4.17;73.92;102637.94;5041192;28;45532;-80
2022/02/11 08:03:51;;;;;;;;;21.00;19.00;;;;;4.44;74.01;102683.78;5052539;28;44982;-81
2022/02/11 08:06:17;;;;;;;;;21.75;21.50;;;;;4.10;73.72;102627.00;5060668;28;45083;-82
2022/02/11 08:08:43;;;;;;;;;19.00;19.00;;;;;4.52;73.58;102668.06;5072012;28;45746;-80
2022/02/11 08:11:08;;;;;;;;;15.75;14.25;;;;;4.55;73.78;102683.97;5072179;28;45146;-80
2022/02/11 08:13:34;;;;;;;;;19.00;16.75;;;;;4.51;73.75;102668.84;5072864;28;45119;-81
2022/02/11 08:15:59;;;;;;;;;20.75;20.75;;;;;4.43;73.58;102654.22;5057115;28;45446;-80
2022/02/11 08:18:25;;;;;;;;;22.50;20.00;;;;;4.49;73.90;102659.09;5053993;28;46081;-80
2022/02/11 08:20:50;;;;;;;;;20.75;18.00;;;;;4.58;73.67;102681.66;5054135;28;45588;-80
2022/02/11 08:23:16;;;;;;;;;18.00;17.00;;;;;4.78;73.65;102725.09;5053923;28;45430;-85
2022/02/11 08:25:41;;;;;;;;;19.25;19.00;;;;;4.62;73.69;102683.72;5036230;28;45699;-80
2022/02/11 08:28:06;;;;;;;;;16.33;15.33;;;;;4.85;73.58;102719.66;5053983;28;45500;-82
2022/02/11 08:30:32;;;;;;;;;20.00;20.00;;;;;4.88;73.80;102717.31;5035662;28;45449;-84
2022/02/11 08:32:57;;;;;;;;;19.75;17.75;;;;;4.36;73.58;102615.41;5054149;28;45536;-81
2022/02/11 08:35:22;;;;;;;;;23.00;19.67;;;;;4.81;73.76;102686.28;5054207;28;45450;-83
2022/02/11 08:37:48;;;;;;;;;20.00;19.00;;;;;5.05;73.73;102724.03;5053790;28;46613;-84
2022/02/11 08:40:13;;;;;;;;;18.00;15.50;;;;;4.68;73.51;102659.94;5053878;28;45410;-84
2022/02/11 08:42:39;;;;;;;;;23.00;19.75;;;;;4.64;73.41;102648.34;5036105;28;45855;-83
2022/02/11 08:45:07;;;;;;;;;19.00;18.00;;;;;5.20;73.84;102742.69;5054120;28;45499;-84
2022/02/11 08:47:32;;;;;;;;;18.50;16.75;;;;;5.17;73.31;102724.19;5053812;28;46140;-83
2022/02/11 08:49:59;;;;;;;;;17.75;14.75;;;;;5.17;73.41;102714.69;5054257;28;45455;-81
2022/02/11 08:52:25;;;;;;;;;3.00;1.75;;;;;5.30;73.34;102721.88;5052856;28;45481;-82
2022/02/11 08:54:52;;;;;;;;;16.00;15.50;;;;;4.81;73.27;102621.16;5053810;28;45484;-81
2022/02/11 08:57:17;;;;;;;;;16.00;16.00;;;;;5.39;73.47;102717.47;5053774;28;46604;-87
2022/02/11 08:59:42;;;;;;;;;18.50;18.50;;;;;5.50;73.40;102717.47;5053380;28;45457;-86
2022/02/11 09:02:11;;;;;;;;;19.75;18.00;;;;;5.58;72.95;102735.63;5054342;28;45607;-85
2022/02/11 09:04:38;;;;;;;;;19.00;16.00;;;;;5.51;73.06;102730.63;5053787;28;45514;-86
2022/02/11 09:07:04;;;;;;;;;15.50;15.00;;;;;5.33;72.67;102680.44;5035059;28;46539;-84
2022/02/11 09:09:29;;;;;;;;;15.50;15.00;;;;;5.64;72.83;102730.94;5053572;28;45285;-80
2022/02/11 09:11:54;;;;;;;;;17.50;16.25;;;;;5.86;72.92;102756.25;5053580;28;45275;-86
2022/02/11 09:14:20;;;;;;;;;18.75;15.75;;;;;5.80;72.92;102724.41;5053670;28;45429;-83
2022/02/11 09:16:45;;;;;;;;;19.50;16.75;;;;;5.71;72.62;102724.53;5053300;28;45443;-85
2022/02/11 09:19:10;;;;;;;;;21.75;20.50;;;;;5.34;72.25;102652.66;5053337;28;45309;-80
2022/02/11 09:21:37;;;;;;;;;17.25;16.50;;;;;6.06;72.67;102778.84;5053439;28;45387;-83
2022/02/11 09:24:03;;;;;;;;;27.50;24.50;;;;;5.66;72.68;102703.31;5053316;28;45471;-80
2022/02/11 09:26:28;;;;;;;;;19.25;18.75;;;;;5.67;72.58;102702.50;5035127;28;47051;-79
2022/02/11 09:28:53;;;;;;;;;21.67;20.00;;;;;6.03;72.55;102765.56;5053235;28;45569;-81
2022/02/11 09:31:23;;;;;;;;;16.75;16.00;;;;;6.21;72.22;102790.63;5053346;28;45392;-80
2022/02/11 09:33:48;;;;;;;;;19.75;19.50;;;;;5.92;72.39;102728.13;5053169;28;45316;-83
2022/02/11 09:36:14;;;;;;;;;17.33;16.67;;;;;6.27;72.68;102777.19;5053086;28;45451;-80
2022/02/11 09:38:39;;;;;;;;;17.50;13.00;;;;;6.01;71.80;102714.91;5052479;28;45344;-84
2022/02/11 09:41:05;;;;;;;;;14.75;14.25;;;;;6.34;72.08;102767.38;5053223;28;45319;-80
2022/02/11 09:43:31;;;;;;;;;15.25;15.25;;;;;5.94;72.12;102695.22;5053246;28;45709;-83
2022/02/11 09:45:56;;;;;;;;;16.00;13.75;;;;;6.58;72.03;102804.16;5052935;28;45445;-83
2022/02/11 09:48:24;;;;;;;;;18.00;15.00;;;;;6.39;72.20;102755.59;5053145;28;45379;-81
2022/02/11 09:50:53;;;;;;;;;15.00;13.25;;;;;6.08;72.11;102681.63;5052960;28;45569;-80
2022/02/11 09:53:19;;;;;;;;;10.25;9.25;;;;;6.61;71.86;102770.47;5052832;28;45562;-80
2022/02/11 09:55:45;;;;;;;;;6.75;6.00;;;;;6.87;71.67;102809.19;5052503;28;46442;-84
2022/02/11 09:58:14;;;;;;;;;8.75;7.25;;;;;6.64;71.13;102763.78;5052921;28;45353;-82
2022/02/11 10:00:44;;;;;;;;;8.00;6.00;;;;;6.81;70.90;102786.09;5052843;28;45403;-81
2022/02/11 10:03:35;;;;;;;;;11.75;10.00;;;;;6.98;70.76;102800.53;5054535;28;45281;-80
2022/02/11 10:06:04;;;;;;;;;7.00;6.25;;;;;6.59;70.53;102719.78;5056371;28;46225;-84
2022/02/11 10:08:31;;;;;;;;;7.50;7.50;;;;;6.82;70.50;102767.00;5058485;28;45414;-84
2022/02/11 10:10:58;;;;;;;;;7.25;7.00;;;;;6.90;70.45;102768.56;5055896;28;45383;-81
2022/02/11 10:13:35;;;;;;;;;8.50;8.50;;;;;7.22;70.67;102813.00;5056309;28;45327;-86
2022/02/11 10:16:10;;;;;;;;;9.75;7.75;;;;;7.08;70.27;102763.88;5055983;28;46095;-79
2022/02/11 10:18:38;;;;;;;;;9.75;8.25;;;;;7.06;70.12;102755.03;5056009;28;45435;-81
2022/02/11 10:21:06;;;;;;;;;9.00;7.50;;;;;6.99;70.24;102742.22;5056233;28;45398;-84
2022/02/11 10:23:37;;;;;;;;;8.00;7.00;;;;;7.45;69.69;102814.84;5055873;28;45335;-84
2022/02/11 10:26:07;;;;;;;;;7.50;7.50;;;;;7.17;69.27;102761.13;5056412;28;46557;-84
2022/02/11 10:28:51;;;;;;;;;12.50;9.25;;;;;7.49;69.18;102814.31;5053903;28;45063;-81
2022/02/11 10:31:20;;;;;;;;;9.50;9.25;;;;;7.61;68.90;102821.31;5053348;28;45127;-84
2022/02/11 10:34:04;;;;;;;;;8.00;8.00;;;;;7.62;68.71;102817.91;5054027;28;45076;-80
2022/02/11 10:36:46;;;;;;;;;11.00;9.75;;;;;7.74;68.79;102826.75;5052909;28;45778;-81
2022/02/11 10:39:38;;;;;;;;;10.75;10.75;;;;;7.82;68.44;102825.63;5053571;28;45042;-81
2022/02/11 10:42:10;;;;;;;;;11.50;8.25;;;;;7.87;68.19;102825.97;5050792;28;45350;-80
2022/02/11 10:44:39;;;;;;;;;9.50;8.00;;;;;7.85;67.74;102812.78;5053874;28;45126;-80
2022/02/11 10:47:16;;;;;;;;;8.75;8.25;;;;;7.66;67.71;102776.41;5053284;28;45982;-80
2022/02/11 10:49:46;;;;;;;;;10.75;8.75;;;;;7.88;67.45;102814.72;5053305;28;45130;-81
2022/02/11 10:52:23;;;;;;;;;9.00;8.50;;;;;7.66;67.30;102771.16;5053421;28;45138;-80
2022/02/11 10:54:51;;;;;;;;;11.75;11.75;;;;;7.91;67.06;102809.72;5052988;28;44961;-85
2022/02/11 10:57:19;;;;;;;;;11.75;11.50;;;;;7.92;67.30;102830.78;5053322;28;45618;-81
2022/02/11 10:59:46;;;;;;;;;8.75;8.00;;;;;7.95;67.28;102836.28;5053540;28;45385;-81
2022/02/11 11:02:15;;;;;;;;;10.50;8.00;;;;;7.99;67.12;102835.72;5053200;28;44967;-80
2022/02/11 11:04:41;;;;;;;;;8.00;8.00;;;;;8.06;67.43;102839.72;5052600;28;45014;-80
2022/02/11 11:07:10;;;;;;;;;10.00;9.00;;;;;8.12;67.05;102840.19;5052523;28;45647;-82
2022/02/11 11:09:36;;;;;;;;;7.50;7.50;;;;;7.86;66.76;102803.22;5052853;28;45127;-80
2022/02/11 11:12:04;;;;;;;;;8.00;8.00;;;;;8.04;66.31;102845.66;5052935;28;45065;-80
2022/02/11 11:14:30;;;;;;;;;8.25;7.00;;;;;8.07;66.74;102838.03;5034523;28;44895;-80
2022/02/11 11:17:00;;;;;;;;;11.75;9.00;;;;;7.80;66.22;102784.44;5048604;28;45640;-80
2022/02/11 11:19:31;;;;;;;;;13.00;12.75;;;;;8.13;66.28;102799.25;5034660;28;45734;-79
2022/02/11 11:22:16;;;;;;;;;12.75;11.00;;;;;8.10;66.19;102784.19;5034702;28;45375;-81
2022/02/11 11:24:58;;;;;;;;;16.00;12.50;;;;;8.21;65.90;102791.16;5034975;28;45415;-82
2022/02/11 11:27:52;;;;;;;;;14.75;11.75;;;;;8.52;66.08;102840.69;5034682;28;47384;-81
2022/02/11 11:30:37;;;;;;;;;14.00;13.00;;;;;8.37;65.45;102803.75;5034922;28;45318;-81
2022/02/11 11:33:08;;;;;;;;;14.00;13.00;;;;;8.64;65.87;102838.13;5017227;28;45516;-80
2022/02/11 11:35:41;;;;;;;;;11.75;10.75;;;;;8.72;65.64;102837.91;5034940;28;45530;-83
2022/02/11 11:38:23;;;;;;;;;13.50;12.25;;;;;8.58;65.18;102775.66;5034325;28;45467;-81
2022/02/11 11:40:55;;;;;;;;;12.75;11.75;;;;;8.69;64.55;102777.38;5034711;28;45879;-85
2022/02/11 11:43:43;;;;;;;;;10.25;9.25;;;;;9.21;64.39;102832.75;5035815;28;45362;-80
2022/02/11 11:46:15;;;;;;;;;9.00;8.50;;;;;9.21;63.92;102831.06;5034993;28;45327;-82
2022/02/11 11:49:00;;;;;;;;;9.00;8.25;;;;;9.16;63.62;102837.69;5034602;28;45473;-83
2022/02/11 11:51:29;;;;;;;;;8.25;7.50;;;;;9.14;63.36;102844.50;5034694;28;45411;-80
2022/02/11 11:54:26;;;;;;;;;5.25;3.00;;;;;9.11;62.96;102832.88;5034534;28;45273;-82
2022/02/11 11:57:07;;;;;;;;;10.25;9.00;;;;;8.80;62.78;102786.03;5034551;28;45540;-80
2022/02/11 11:59:50;;;;;;;;;6.00;3.25;;;;;9.12;62.61;102834.72;5034422;28;45498;-80
2022/02/11 12:02:33;;;;;;;;;8.75;8.00;;;;;9.12;62.74;102824.22;5016354;28;45714;-80
2022/02/11 12:05:00;;;;;;;;;7.75;7.25;;;;;9.24;62.87;102822.50;5035124;28;45541;-81
2022/02/11 12:07:33;;;;;;;;;7.25;7.00;;;;;9.41;62.43;102816.78;5034061;28;45305;-80
2022/02/11 12:10:02;;;;;;;;;8.50;8.00;;;;;9.49;62.22;102791.06;5034096;28;46375;-79
2022/02/11 12:12:30;;;;;;;;;7.00;6.75;;;;;9.99;62.12;102820.91;5016189;28;45905;-80
2022/02/11 12:14:57;;;;;;;;;8.00;7.25;;;;;10.03;61.02;102799.28;5034175;28;45455;-79
2022/02/11 12:17:24;;;;;;;;;13.25;10.50;;;;;10.17;60.97;102818.66;5016061;28;45591;-83
2022/02/11 12:19:51;;;;;;;;;7.50;7.50;;;;;10.10;60.80;102805.91;5033991;28;46133;-82
2022/02/11 12:22:19;;;;;;;;;10.00;10.00;;;;;9.87;60.30;102791.16;5033833;28;45750;-84
2022/02/11 12:27:34;;;;;;;;;9.25;9.25;;;;;9.92;60.18;102815.13;5034250;28;45352;-80
2022/02/11 12:30:09;;;;;;;;;10.00;10.00;;;;;9.73;60.56;102774.44;5028357;28;48191;-81
2022/02/11 12:32:43;;;;;;;;;8.75;8.75;;;;;10.13;60.61;102815.72;5051880;28;45635;-80
2022/02/11 12:35:11;;;;;;;;;16.00;10.00;;;;;10.27;60.52;102788.69;5051191;28;45465;-81
2022/02/11 12:37:39;;;;;;;;;10.00;9.25;;;;;10.49;60.16;102807.78;5049989;28;45245;-82
2022/02/11 12:40:10;;;;;;;;;10.00;9.00;;;;;10.19;59.69;102725.06;5051722;28;45668;-81
2022/02/11 12:42:38;;;;;;;;;13.75;12.25;;;;;10.40;60.25;102733.53;5051393;28;45136;-84
2022/02/11 12:45:06;;;;;;;;;13.75;13.75;;;;;10.41;59.56;102708.16;5051470;28;45051;-82
2022/02/11 12:47:33;;;;;;;;;15.00;12.75;;;;;11.14;58.61;102796.28;5051915;28;45024;-80
2022/02/11 12:50:00;;;;;;;;;19.50;16.00;;;;;11.01;58.14;102747.19;5042562;28;45921;-81
2022/02/11 12:52:28;;;;;;;;;15.75;14.50;;;;;11.45;57.68;102804.41;5044087;28;45503;-85
2022/02/11 12:55:07;;;;;;;;;20.00;17.25;;;;;11.58;57.61;102796.50;5051875;28;45267;-83
2022/02/11 12:57:34;;;;;;;;;18.00;16.00;;;;;11.76;57.08;102765.09;5050877;28;45006;-81
2022/02/11 13:00:00;;;;;;;;;17.50;14.75;;;;;11.92;56.97;102730.09;5050001;28;46134;-80
2022/02/11 13:02:30;;;;;;;;;16.25;15.25;;;;;12.48;56.79;102793.25;5045451;28;45209;-81
2022/02/11 13:05:10;;;;;;;;;15.25;14.00;;;;;12.97;56.61;102780.31;5049023;28;45249;-80
2022/02/11 13:07:37;;;;;;;;;14.25;13.00;;;;;14.19;55.44;102777.41;5049692;28;45005;-81
2022/02/11 13:10:04;;;;;;;;;14.25;13.50;;;;;14.70;52.18;102762.41;5050786;28;45332;-80
2022/02/11 13:12:38;;;;;;;;;15.25;14.75;;;;;15.10;52.52;102758.16;5054146;28;44987;-80
2022/02/11 13:15:05;;;;;;;;;20.50;17.25;;;;;14.61;50.95;102748.69;5050399;28;44970;-81
2022/02/11 13:17:30;;;;;;;;;14.25;14.00;;;;;14.01;51.36;102779.06;5032818;28;45488;-80
2022/02/11 13:20:10;;;;;;;;;18.25;17.50;;;;;12.75;51.69;102704.25;5033335;28;45598;-82
2022/02/11 13:22:36;;;;;;;;;17.75;16.50;;;;;12.82;52.36;102789.16;5033189;28;45295;-82
2022/02/11 13:25:02;;;;;;;;;15.25;14.75;;;;;12.33;52.84;102790.63;5015402;28;45550;-80
2022/02/11 13:27:44;;;;;;;;;12.75;12.75;;;;;11.40;52.84;102711.06;5033246;28;45592;-81
2022/02/11 13:30:12;;;;;;;;;14.00;13.25;;;;;11.53;53.72;102788.31;5033198;28;46696;-81
2022/02/11 13:32:37;;;;;;;;;12.25;12.00;;;;;11.29;53.89;102794.63;5033020;28;45786;-80
2022/02/11 13:35:05;;;;;;;;;13.25;13.25;;;;;10.61;54.33;102706.84;5033550;28;45455;-82
2022/02/11 13:37:47;;;;;;;;;16.50;15.75;;;;;10.94;55.07;102787.06;5032585;28;45645;-81
2022/02/11 13:40:15;;;;;;;;;14.75;12.75;;;;;10.98;55.61;102784.72;5033067;28;45473;-80
2022/02/11 13:42:51;;;;;;;;;12.25;11.25;;;;;11.07;55.33;102779.16;5045382;28;45387;-80
2022/02/11 13:45:16;;;;;;;;;16.00;14.25;;;;;11.18;55.11;102772.88;5053421;28;45136;-81
2022/02/11 13:47:56;;;;;;;;;16.00;14.67;;;;;11.63;55.14;102767.00;5052901;28;46062;-80
2022/02/11 13:50:21;;;;;;;;;15.25;14.25;;;;;12.48;55.22;102775.72;5052501;28;45193;-80
2022/02/11 13:53:06;;;;;;;;;15.00;13.00;;;;;14.70;52.97;102761.50;5052409;28;45109;-80
2022/02/11 13:55:32;;;;;;;;;13.00;12.50;;;;;16.64;50.40;102743.03;5052990;28;45001;-80
2022/02/11 13:58:11;;;;;;;;;13.00;12.25;;;;;16.77;47.64;102717.09;5052356;28;45043;-80
2022/02/11 14:00:37;;;;;;;;;14.75;14.00;;;;;16.92;47.53;102694.66;5034573;28;47236;-80
2022/02/11 14:03:05;;;;;;;;;16.00;15.00;;;;;17.98;46.16;102732.41;5033158;28;45309;-80
2022/02/11 14:05:44;;;;;;;;;13.75;13.75;;;;;18.08;44.53;102741.63;5034483;28;45099;-80
2022/02/11 14:08:10;;;;;;;;;13.50;12.75;;;;;17.41;44.38;102691.22;5032938;28;45331;-80
2022/02/11 14:10:35;;;;;;;;;10.50;10.25;;;;;17.48;45.05;102715.44;5017007;28;48400;-80
2022/02/11 14:13:09;;;;;;;;;13.75;12.50;;;;;17.82;44.91;102734.44;5017572;28;45321;-80
2022/02/11 14:15:36;;;;;;;;;15.00;15.00;;;;;17.73;44.83;102647.22;5035146;28;45352;-79
2022/02/11 14:18:05;;;;;;;;;14.25;13.50;;;;;18.30;43.71;102698.03;5036274;28;45459;-81
2022/02/11 14:20:31;;;;;;;;;14.00;13.50;;;;;18.11;43.52;102730.19;5034775;28;45558;-80
2022/02/11 14:23:10;;;;;;;;;15.50;14.75;;;;;17.04;43.76;102663.22;5035179;28;46091;-79
2022/02/11 14:25:35;;;;;;;;;12.00;12.00;;;;;16.26;44.64;102678.66;5036116;28;45213;-80
2022/02/11 14:28:00;;;;;;;;;14.00;14.00;;;;;15.85;44.90;102733.44;5035344;28;45224;-79
2022/02/11 14:30:28;;;;;;;;;11.00;11.00;;;;;15.03;45.37;102713.69;5035133;28;45396;-80
2022/02/11 14:32:54;;;;;;;;;11.00;11.00;;;;;14.33;46.47;102700.47;5033342;28;45357;-80
2022/02/11 14:35:19;;;;;;;;;14.75;13.50;;;;;14.11;47.30;102746.09;5032506;28;45293;-81
2022/02/11 14:37:45;;;;;;;;;14.25;14.00;;;;;13.31;47.60;102693.38;5032012;28;45364;-80
2022/02/11 14:40:10;;;;;;;;;12.00;10.50;;;;;13.30;48.17;102746.97;5032246;28;45494;-81
2022/02/11 14:42:36;;;;;;;;;12.25;12.00;;;;;12.64;48.58;102693.09;5032847;28;45687;-80
2022/02/11 14:45:01;;;;;;;;;14.75;12.00;;;;;12.37;49.05;102697.69;5032478;28;45373;-80
2022/02/11 14:47:26;;;;;;;;;13.00;12.50;;;;;12.34;49.12;102750.25;5032324;28;45622;-80
2022/02/11 14:49:52;;;;;;;;;13.33;13.00;;;;;11.83;49.56;102702.41;5033205;28;47078;-80
2022/02/11 14:52:17;;;;;;;;;15.00;13.75;;;;;11.90;50.33;102760.72;5035102;28;45404;-80
2022/02/11 14:54:42;;;;;;;;;14.25;12.75;;;;;11.60;50.62;102745.72;5035776;28;45388;-80
2022/02/11 14:57:08;;;;;;;;;16.25;15.00;;;;;11.46;50.80;102738.66;5035660;28;45363;-81
2022/02/11 14:59:33;;;;;;;;;13.50;12.00;;;;;11.26;51.05;102724.25;5035154;28;45486;-79
2022/02/11 15:01:59;;;;;;;;;16.00;15.75;;;;;11.20;51.35;102736.13;5035905;28;45635;-79
2022/02/11 15:04:24;;;;;;;;;14.75;12.75;;;;;10.81;51.42;102680.13;5035931;28;45498;-80
2022/02/11 15:06:51;;;;;;;;;13.00;13.00;;;;;11.02;51.82;102743.72;5035068;28;45414;-79
2022/02/11 15:09:18;;;;;;;;;14.25;12.50;;;;;10.97;51.58;102750.41;5035240;28;46100;-79
2022/02/11 15:11:43;;;;;;;;;12.75;12.50;;;;;10.92;51.96;102758.00;5036380;28;45765;-79
2022/02/11 15:14:09;;;;;;;;;11.75;11.50;;;;;10.90;52.57;102742.94;5052955;28;45013;-79
2022/02/11 15:16:35;;;;;;;;;11.50;11.00;;;;;10.69;52.50;102679.31;5053435;28;44950;-79
2022/02/11 15:19:02;;;;;;;;;11.00;10.75;;;;;10.87;52.19;102676.97;5064332;28;45571;-83
2022/02/11 15:21:28;;;;;;;;;12.00;12.00;;;;;11.11;52.09;102689.97;5072889;28;45024;-85
2022/02/11 15:23:53;;;;;;;;;15.25;12.00;;;;;10.96;51.70;102639.00;5073328;28;45159;-79